Time;durP1;ratioP1;P1;durP2;ratioP2;P2;SDS_P1;SDS_P2;PMS_P1;PMS_P2;Temp;Humidity;BMP_temperature;BMP_pressure;BME280_temperature;BME280_humidity;BME280_pressure;Samples;Min_cycle;Max_cycle;Signal;HPM_P1;HPM_P2
2022/10/21 00:01:55;;;;;;;1.02;0.95;;;9.20;99.90;;;;;;4403014;32;20126;-76
2022/10/21 00:04:20;;;;;;;0.50;0.50;;;9.20;99.90;;;;;;4377912;32;20501;-76
2022/10/21 00:06:46;;;;;;;0.70;0.70;;;9.30;99.90;;;;;;4391234;32;20409;-77
2022/10/21 00:09:11;;;;;;;0.50;0.50;;;9.20;99.90;;;;;;4406881;32;20070;-77
2022/10/21 00:11:37;;;;;;;0.40;0.40;;;9.20;99.90;;;;;;4407684;32;20099;-77
2022/10/21 00:14:03;;;;;;;1.67;0.52;;;9.30;99.90;;;;;;4407802;32;20517;-77
2022/10/21 00:16:28;;;;;;;0.50;0.45;;;9.20;99.90;;;;;;4404970;32;20069;-76
2022/10/21 00:18:54;;;;;;;3.10;1.12;;;9.20;99.90;;;;;;4401141;32;20572;-77
2022/10/21 00:21:21;;;;;;;0.20;0.20;;;9.30;99.90;;;;;;4408186;32;20086;-76
2022/10/21 00:23:48;;;;;;;1.08;0.98;;;9.20;99.90;;;;;;4408728;32;20062;-78
2022/10/21 00:26:14;;;;;;;1.67;0.90;;;9.30;99.90;;;;;;4407691;32;20085;-77
2022/10/21 00:28:40;;;;;;;0.60;0.60;;;9.20;99.90;;;;;;4404430;32;20129;-76
2022/10/21 00:31:07;;;;;;;0.70;0.70;;;9.30;99.90;;;;;;4404466;32;20089;-78
2022/10/21 00:33:33;;;;;;;1.55;1.37;;;9.30;99.90;;;;;;4389126;32;20330;-76
2022/10/21 00:36:01;;;;;;;0.45;0.45;;;9.30;99.90;;;;;;4382747;32;20575;-76
2022/10/21 00:38:29;;;;;;;0.50;0.50;;;9.20;99.90;;;;;;4406265;32;20082;-77
2022/10/21 00:40:55;;;;;;;0.50;0.50;;;9.20;99.90;;;;;;4408078;32;20126;-77
2022/10/21 00:43:22;;;;;;;0.50;0.50;;;9.10;99.90;;;;;;4408847;32;20112;-77
2022/10/21 00:45:51;;;;;;;0.80;0.70;;;9.10;99.90;;;;;;4406167;32;20110;-77
2022/10/21 00:48:37;;;;;;;0.40;0.40;;;9.10;99.90;;;;;;4397389;32;20460;-77
2022/10/21 00:51:05;;;;;;;0.57;0.57;;;9.00;99.90;;;;;;4405226;32;20105;-78
2022/10/21 00:53:32;;;;;;;0.47;0.47;;;9.00;99.90;;;;;;4407451;32;20599;-78
2022/10/21 00:56:04;;;;;;;0.35;0.35;;;9.10;99.90;;;;;;4405570;32;21235;-78
2022/10/21 00:58:31;;;;;;;0.57;0.57;;;9.10;99.90;;;;;;4407617;32;20061;-78
2022/10/21 01:01:00;;;;;;;1.58;0.90;;;9.00;99.90;;;;;;4430430;27;20129;-67
2022/10/21 01:03:27;;;;;;;1.95;1.02;;;9.00;99.90;;;;;;4389708;32;20783;-68
2022/10/21 01:05:55;;;;;;;0.40;0.40;;;9.00;99.90;;;;;;4390709;32;20075;-68
2022/10/21 01:08:22;;;;;;;0.57;0.57;;;9.00;99.90;;;;;;4409961;32;20102;-67
2022/10/21 01:10:48;;;;;;;1.58;1.20;;;9.10;99.90;;;;;;4411325;32;20061;-67
2022/10/21 01:13:24;;;;;;;1.10;0.75;;;9.00;99.90;;;;;;4410983;32;20070;-67
2022/10/21 01:16:11;;;;;;;0.70;0.70;;;9.00;99.90;;;;;;4409781;32;20376;-67
2022/10/21 01:18:56;;;;;;;0.73;0.73;;;9.10;99.90;;;;;;4390403;32;20110;-67
2022/10/21 01:21:31;;;;;;;0.57;0.57;;;9.10;99.90;;;;;;4410068;32;20090;-67
2022/10/21 01:24:36;;;;;;;0.70;0.70;;;9.10;99.90;;;;;;4428345;27;20097;-74
2022/10/21 01:27:11;;;;;;;0.75;0.75;;;9.00;99.90;;;;;;4368918;32;20150;-74
2022/10/21 01:30:05;;;;;;;1.55;1.05;;;9.00;99.90;;;;;;4381754;32;20152;-73
2022/10/21 01:32:39;;;;;;;7.57;1.50;;;9.10;99.90;;;;;;4360651;32;20144;-75
2022/10/21 01:35:23;;;;;;;1.23;0.60;;;9.10;99.90;;;;;;4334505;32;20671;-74
2022/10/21 01:38:14;;;;;;;1.85;1.23;;;9.20;99.90;;;;;;4374219;32;20578;-73
2022/10/21 01:41:07;;;;;;;0.50;0.50;;;9.10;99.90;;;;;;4369829;32;20091;-75
2022/10/21 01:43:43;;;;;;;0.50;0.50;;;9.20;99.90;;;;;;4370995;32;20082;-74
2022/10/21 01:46:15;;;;;;;0.50;0.50;;;9.20;99.90;;;;;;4380276;32;20149;-75
2022/10/21 01:48:47;;;;;;;5.12;1.33;;;9.20;99.90;;;;;;4371471;32;20577;-73
2022/10/21 01:51:15;;;;;;;2.15;1.45;;;9.30;99.90;;;;;;4380074;32;20145;-74
2022/10/21 01:53:46;;;;;;;0.50;0.50;;;9.30;99.90;;;;;;4381537;32;20106;-73
2022/10/21 01:56:13;;;;;;;0.52;0.52;;;9.30;99.90;;;;;;4378524;32;20464;-74
2022/10/21 01:58:42;;;;;;;0.57;0.57;;;9.30;99.90;;;;;;4378222;32;20868;-74
2022/10/21 02:01:11;;;;;;;0.43;0.43;;;9.30;99.90;;;;;;4383455;32;20101;-74
2022/10/21 02:03:40;;;;;;;1.67;1.08;;;9.40;99.90;;;;;;4352801;32;20187;-75
2022/10/21 02:06:06;;;;;;;1.80;0.75;;;9.40;99.90;;;;;;4358638;32;20435;-75
2022/10/21 02:08:32;;;;;;;2.62;0.77;;;9.50;99.90;;;;;;4372546;32;20090;-75
2022/10/21 02:11:01;;;;;;;0.40;0.40;;;9.50;99.90;;;;;;4379753;32;21393;-75
2022/10/21 02:13:33;;;;;;;0.45;0.45;;;9.60;99.90;;;;;;4378120;32;20062;-75
2022/10/21 02:16:02;;;;;;;1.25;0.60;;;9.50;99.90;;;;;;4363221;32;20063;-76
2022/10/21 02:18:28;;;;;;;1.33;1.10;;;9.40;99.90;;;;;;4356016;32;20530;-75
2022/10/21 02:21:01;;;;;;;1.85;0.90;;;9.40;99.90;;;;;;4366924;32;20110;-75
2022/10/21 02:23:46;;;;;;;3.40;0.98;;;9.40;99.90;;;;;;4366238;32;20115;-74
2022/10/21 02:26:12;;;;;;;1.52;0.77;;;9.50;99.90;;;;;;4368391;32;20833;-74
2022/10/21 02:28:38;;;;;;;3.10;1.33;;;9.50;99.90;;;;;;4363884;32;20089;-75
2022/10/21 02:31:18;;;;;;;0.30;0.30;;;9.50;99.90;;;;;;4367191;32;20063;-74
2022/10/21 02:33:50;;;;;;;1.30;1.08;;;9.60;99.90;;;;;;4338060;32;20558;-76
2022/10/21 02:36:25;;;;;;;0.40;0.40;;;9.60;99.90;;;;;;4344644;32;20121;-75
2022/10/21 02:38:59;;;;;;;0.55;0.55;;;9.60;99.90;;;;;;4366111;32;20148;-75
2022/10/21 02:41:27;;;;;;;0.40;0.40;;;9.60;99.90;;;;;;4364896;32;20075;-75
2022/10/21 02:43:59;;;;;;;0.68;0.52;;;9.60;99.90;;;;;;4364465;32;20099;-74
2022/10/21 02:46:30;;;;;;;0.93;0.93;;;9.70;99.90;;;;;;4361071;32;20270;-75
2022/10/21 02:48:55;;;;;;;4.53;0.95;;;9.70;99.90;;;;;;4357650;32;20533;-74
2022/10/21 02:51:20;;;;;;;1.67;0.65;;;9.70;99.90;;;;;;4364581;32;20087;-75
2022/10/21 02:53:46;;;;;;;0.60;0.60;;;9.70;99.90;;;;;;4363994;32;20062;-74
2022/10/21 02:56:11;;;;;;;1.20;1.10;;;9.70;99.90;;;;;;4364300;32;20090;-75
2022/10/21 02:58:37;;;;;;;0.65;0.65;;;9.60;99.90;;;;;;4367945;32;20086;-74
2022/10/21 03:01:02;;;;;;;0.57;0.57;;;9.60;99.90;;;;;;4366510;32;20555;-75
2022/10/21 03:03:28;;;;;;;0.57;0.50;;;9.70;99.90;;;;;;4341642;32;20085;-76
2022/10/21 03:05:55;;;;;;;0.70;0.70;;;9.60;99.90;;;;;;4341631;32;20098;-75
2022/10/21 03:08:20;;;;;;;0.62;0.62;;;9.60;99.90;;;;;;4362776;32;20154;-74
2022/10/21 03:10:50;;;;;;;0.52;0.52;;;9.60;99.90;;;;;;4366838;32;20066;-74
2022/10/21 03:13:15;;;;;;;0.70;0.70;;;9.50;99.90;;;;;;4365185;32;20907;-74
2022/10/21 03:15:41;;;;;;;1.00;0.95;;;9.50;99.90;;;;;;4364510;32;20071;-76
2022/10/21 03:18:06;;;;;;;0.60;0.60;;;9.60;99.90;;;;;;4354696;32;20118;-76
2022/10/21 03:20:33;;;;;;;0.70;0.70;;;9.50;99.90;;;;;;4367257;32;20078;-74
2022/10/21 03:22:58;;;;;;;0.50;0.50;;;9.60;99.90;;;;;;4367849;32;20066;-74
2022/10/21 03:25:24;;;;;;;0.40;0.40;;;9.60;99.90;;;;;;4364319;32;20411;-73
2022/10/21 03:27:50;;;;;;;1.55;0.82;;;9.50;99.90;;;;;;4364412;32;20085;-74
2022/10/21 03:30:15;;;;;;;0.90;0.80;;;9.50;99.90;;;;;;4366215;32;20431;-75
2022/10/21 03:32:41;;;;;;;0.50;0.50;;;9.50;99.90;;;;;;4357235;32;20200;-76
2022/10/21 03:35:06;;;;;;;0.43;0.43;;;9.60;99.90;;;;;;4339153;32;20062;-75
2022/10/21 03:37:32;;;;;;;0.50;0.50;;;9.60;99.90;;;;;;4363267;32;20148;-75
2022/10/21 03:39:57;;;;;;;1.85;1.05;;;9.60;99.90;;;;;;4367596;32;20094;-75
2022/10/21 03:42:23;;;;;;;0.43;0.43;;;9.60;99.90;;;;;;4369660;32;20524;-75
2022/10/21 03:44:48;;;;;;;5.47;1.12;;;9.60;99.90;;;;;;4367446;32;20079;-75
2022/10/21 03:47:14;;;;;;;0.62;0.43;;;9.60;99.90;;;;;;4356207;32;20078;-75
2022/10/21 03:49:39;;;;;;;0.30;0.30;;;9.70;99.90;;;;;;4364453;32;21259;-75
2022/10/21 03:52:05;;;;;;;0.70;0.70;;;9.60;99.90;;;;;;4368583;32;20458;-75
2022/10/21 03:54:30;;;;;;;0.68;0.68;;;9.60;99.90;;;;;;4367956;32;20083;-75
2022/10/21 03:56:56;;;;;;;0.60;0.60;;;9.60;99.90;;;;;;4367700;32;20280;-75
2022/10/21 03:59:21;;;;;;;0.82;0.77;;;9.60;99.90;;;;;;4371998;32;20095;-74
2022/10/21 04:01:47;;;;;;;0.82;0.82;;;9.60;99.90;;;;;;4368527;32;20071;-76
2022/10/21 04:04:12;;;;;;;0.75;0.70;;;9.60;99.90;;;;;;4333163;32;20283;-75
2022/10/21 04:06:38;;;;;;;0.50;0.50;;;9.50;99.90;;;;;;4353641;32;20097;-75
2022/10/21 04:09:03;;;;;;;0.57;0.57;;;9.60;99.90;;;;;;4365906;32;20107;-74
2022/10/21 04:11:29;;;;;;;4.78;1.87;;;9.60;99.90;;;;;;4368919;32;20083;-74
2022/10/21 04:13:54;;;;;;;0.73;0.70;;;9.60;99.90;;;;;;4363950;32;20079;-76
2022/10/21 04:16:21;;;;;;;1.15;1.05;;;9.60;99.90;;;;;;4362096;32;20070;-75
2022/10/21 04:18:47;;;;;;;2.87;1.50;;;9.70;99.90;;;;;;4361679;32;20427;-75
2022/10/21 04:21:13;;;;;;;0.70;0.70;;;9.70;99.90;;;;;;4365033;32;20264;-75
2022/10/21 04:23:38;;;;;;;0.93;0.85;;;9.60;99.90;;;;;;4326158;32;20119;-75
2022/10/21 04:26:07;;;;;;;0.75;0.70;;;9.60;99.90;;;;;;4339032;32;20079;-76
2022/10/21 04:28:33;;;;;;;3.80;0.93;;;9.60;99.90;;;;;;4322896;32;20099;-74
2022/10/21 04:30:58;;;;;;;0.57;0.57;;;9.60;99.90;;;;;;4337655;32;20093;-75
2022/10/21 04:33:25;;;;;;;0.70;0.70;;;9.60;99.90;;;;;;4306143;32;21412;-75
2022/10/21 04:35:53;;;;;;;0.50;0.50;;;9.60;99.90;;;;;;4318177;32;20578;-75
2022/10/21 04:38:20;;;;;;;0.65;0.65;;;9.60;99.90;;;;;;4357008;32;20109;-75
2022/10/21 04:40:45;;;;;;;0.45;0.45;;;9.60;99.90;;;;;;4367875;32;20090;-73
2022/10/21 04:43:10;;;;;;;1.90;0.75;;;9.70;99.90;;;;;;4367954;32;20326;-74
2022/10/21 04:45:38;;;;;;;1.42;0.75;;;9.60;99.90;;;;;;4368105;32;20131;-74
2022/10/21 04:48:05;;;;;;;0.60;0.55;;;9.70;99.90;;;;;;4360316;32;20925;-74
2022/10/21 04:50:31;;;;;;;0.40;0.40;;;9.70;99.90;;;;;;4367835;32;20431;-73
2022/10/21 04:52:56;;;;;;;2.58;0.68;;;9.70;99.90;;;;;;4339857;32;20098;-74
2022/10/21 04:55:22;;;;;;;0.75;0.75;;;9.70;99.90;;;;;;4332835;32;20633;-75
2022/10/21 04:57:47;;;;;;;1.85;0.68;;;9.70;99.90;;;;;;4353321;32;20100;-76
2022/10/21 05:00:13;;;;;;;0.60;0.60;;;9.70;99.90;;;;;;4361298;32;20067;-76
2022/10/21 05:02:39;;;;;;;0.40;0.40;;;9.70;99.90;;;;;;4344526;32;20206;-76
2022/10/21 05:05:04;;;;;;;1.17;1.05;;;9.70;99.90;;;;;;4304737;32;20941;-76
2022/10/21 05:07:30;;;;;;;1.25;0.85;;;9.70;99.90;;;;;;4322786;32;20349;-75
2022/10/21 05:09:55;;;;;;;0.77;0.77;;;9.70;99.90;;;;;;4321409;32;20089;-74
2022/10/21 05:12:21;;;;;;;2.22;1.08;;;9.70;99.90;;;;;;4325660;32;20066;-76
2022/10/21 05:14:46;;;;;;;0.57;0.57;;;9.70;99.90;;;;;;4317647;32;20099;-75
2022/10/21 05:17:12;;;;;;;0.68;0.68;;;9.70;99.90;;;;;;4314636;32;20516;-76
2022/10/21 05:19:37;;;;;;;0.40;0.40;;;9.70;99.90;;;;;;4274785;32;20411;-75
2022/10/21 05:22:03;;;;;;;0.68;0.60;;;9.70;99.90;;;;;;4307569;32;20226;-76
2022/10/21 05:24:28;;;;;;;3.10;1.15;;;9.80;99.90;;;;;;4267214;32;20447;-77
2022/10/21 05:26:54;;;;;;;0.82;0.77;;;9.80;99.90;;;;;;4301715;32;20618;-77
2022/10/21 05:29:19;;;;;;;0.95;0.60;;;9.80;99.90;;;;;;4284687;32;20497;-76
2022/10/21 05:31:46;;;;;;;1.48;0.80;;;9.80;99.90;;;;;;4285681;32;20179;-77
2022/10/21 05:34:12;;;;;;;0.50;0.50;;;9.80;99.90;;;;;;4292998;32;20422;-76
2022/10/21 05:36:37;;;;;;;1.30;0.95;;;9.80;99.90;;;;;;4315103;32;20175;-78
2022/10/21 05:39:03;;;;;;;1.70;0.70;;;9.80;99.90;;;;;;4311458;32;20308;-76
2022/10/21 05:41:29;;;;;;;0.43;0.43;;;9.90;99.90;;;;;;4312278;32;20186;-76
2022/10/21 05:43:55;;;;;;;0.62;0.62;;;10.00;99.90;;;;;;4314115;32;20510;-76
2022/10/21 05:46:21;;;;;;;1.20;0.82;;;10.00;99.90;;;;;;4328782;32;20391;-78
2022/10/21 05:48:46;;;;;;;0.85;0.85;;;9.90;99.90;;;;;;4325088;32;20262;-76
2022/10/21 05:51:12;;;;;;;0.50;0.50;;;10.00;99.90;;;;;;4327669;32;20327;-75
2022/10/21 05:53:38;;;;;;;0.50;0.50;;;9.90;99.90;;;;;;4331949;32;20120;-76
2022/10/21 05:56:06;;;;;;;0.50;0.50;;;9.90;99.90;;;;;;4336720;32;20166;-75
2022/10/21 05:58:33;;;;;;;0.65;0.60;;;10.00;99.90;;;;;;4332388;32;20507;-76
2022/10/21 06:00:59;;;;;;;2.87;0.80;;;10.00;99.90;;;;;;4321762;32;20090;-75
2022/10/21 06:03:28;;;;;;;0.40;0.40;;;10.00;99.90;;;;;;4318745;32;20102;-74
2022/10/21 06:05:55;;;;;;;15.07;1.05;;;9.90;99.90;;;;;;4325167;32;20114;-75
2022/10/21 06:08:21;;;;;;;0.82;0.82;;;10.00;99.90;;;;;;4331856;32;20959;-75
2022/10/21 06:10:46;;;;;;;0.60;0.60;;;10.00;99.90;;;;;;4336634;32;20385;-75
2022/10/21 06:13:12;;;;;;;4.47;2.15;;;9.90;99.90;;;;;;4345990;32;20154;-74
2022/10/21 06:15:37;;;;;;;1.25;1.02;;;10.00;99.90;;;;;;4349548;32;20615;-75
2022/10/21 06:18:03;;;;;;;0.90;0.68;;;10.00;99.90;;;;;;4326894;32;20198;-75
2022/10/21 06:20:28;;;;;;;1.00;0.60;;;9.80;99.90;;;;;;4335834;32;20237;-75
2022/10/21 06:22:54;;;;;;;3.67;0.80;;;9.90;99.90;;;;;;4345250;32;20411;-74
2022/10/21 06:25:20;;;;;;;0.37;0.37;;;9.80;99.90;;;;;;4344858;32;20471;-75
2022/10/21 06:27:45;;;;;;;3.80;1.58;;;9.80;99.90;;;;;;4343945;32;20119;-74
2022/10/21 06:30:11;;;;;;;0.73;0.73;;;9.90;99.90;;;;;;4336828;32;20527;-75
2022/10/21 06:32:36;;;;;;;0.70;0.70;;;9.90;99.90;;;;;;4330629;32;20161;-75
2022/10/21 06:35:02;;;;;;;0.68;0.68;;;9.90;99.90;;;;;;4332926;32;20751;-75
2022/10/21 06:37:27;;;;;;;1.15;0.90;;;9.90;99.90;;;;;;4343219;32;20061;-74
2022/10/21 06:39:54;;;;;;;0.68;0.50;;;9.90;99.90;;;;;;4347226;32;20769;-75
2022/10/21 06:42:19;;;;;;;0.43;0.43;;;9.90;99.90;;;;;;4341076;32;20641;-74
2022/10/21 06:44:45;;;;;;;1.02;0.90;;;9.90;99.90;;;;;;4334841;32;20180;-74
2022/10/21 06:47:10;;;;;;;1.70;0.82;;;10.00;99.90;;;;;;4349770;32;20253;-75
2022/10/21 06:49:36;;;;;;;0.40;0.40;;;10.00;99.90;;;;;;4335293;32;20094;-77
2022/10/21 06:52:01;;;;;;;0.62;0.62;;;10.00;99.90;;;;;;4336050;32;20150;-75
2022/10/21 06:54:27;;;;;;;0.70;0.70;;;10.00;99.90;;;;;;4342119;32;20408;-74
2022/10/21 06:56:52;;;;;;;0.60;0.60;;;10.10;99.90;;;;;;4350120;32;20094;-74
2022/10/21 06:59:18;;;;;;;0.52;0.52;;;10.10;99.90;;;;;;4335114;32;20095;-75
2022/10/21 07:01:43;;;;;;;0.40;0.40;;;10.10;99.90;;;;;;4333021;32;20826;-75
2022/10/21 07:04:09;;;;;;;0.80;0.80;;;10.10;99.90;;;;;;4330160;32;20098;-77
2022/10/21 07:06:36;;;;;;;0.50;0.50;;;10.10;99.90;;;;;;4344130;32;20109;-78
2022/10/21 07:09:03;;;;;;;2.30;0.75;;;10.10;99.90;;;;;;4348947;32;20154;-78
2022/10/21 07:11:28;;;;;;;0.30;0.30;;;10.20;99.90;;;;;;4341702;32;20087;-76
2022/10/21 07:13:55;;;;;;;1.60;1.35;;;10.20;99.90;;;;;;4333282;32;20542;-78
2022/10/21 07:16:23;;;;;;;1.75;1.05;;;10.30;99.90;;;;;;4340351;32;20121;-76
2022/10/21 07:18:49;;;;;;;2.15;0.90;;;10.30;99.90;;;;;;4330419;32;20199;-76
2022/10/21 07:21:17;;;;;;;4.25;1.25;;;10.30;99.90;;;;;;4331577;32;20114;-77
2022/10/21 07:23:44;;;;;;;13.62;0.90;;;10.30;99.90;;;;;;4331608;32;20204;-75
2022/10/21 07:26:10;;;;;;;0.90;0.90;;;10.20;99.90;;;;;;4333529;32;20197;-76
2022/10/21 07:28:36;;;;;;;1.27;0.90;;;10.20;99.90;;;;;;4340484;32;20189;-75
2022/10/21 07:31:03;;;;;;;0.70;0.70;;;10.20;99.90;;;;;;4314112;32;20118;-78
2022/10/21 07:33:29;;;;;;;0.65;0.62;;;10.30;99.90;;;;;;4327975;32;20767;-76
2022/10/21 07:36:05;;;;;;;0.50;0.50;;;10.30;99.90;;;;;;4331090;32;20218;-75
2022/10/21 07:38:30;;;;;;;0.57;0.57;;;10.30;99.90;;;;;;4335714;32;20090;-76
2022/10/21 07:40:57;;;;;;;0.40;0.40;;;10.40;99.90;;;;;;4334844;32;20111;-77
2022/10/21 07:43:23;;;;;;;1.10;0.73;;;10.40;99.90;;;;;;4332913;32;20236;-76
2022/10/21 07:45:48;;;;;;;1.33;0.93;;;10.40;99.90;;;;;;4325047;32;20882;-76
2022/10/21 07:48:14;;;;;;;1.70;1.27;;;10.40;99.90;;;;;;4317678;32;20163;-75
2022/10/21 07:50:41;;;;;;;3.10;1.42;;;10.50;99.90;;;;;;4303568;32;21058;-75
2022/10/21 07:53:07;;;;;;;1.20;0.70;;;10.50;99.90;;;;;;4315595;32;21195;-76
2022/10/21 07:55:33;;;;;;;1.00;0.90;;;10.60;99.90;;;;;;4318539;32;20085;-75
2022/10/21 07:57:58;;;;;;;1.85;1.37;;;10.50;99.90;;;;;;4317195;32;20198;-76
2022/10/21 08:00:24;;;;;;;1.15;0.80;;;10.60;99.90;;;;;;4308378;32;20389;-76
2022/10/21 08:02:54;;;;;;;0.60;0.60;;;10.70;99.90;;;;;;4312586;32;20138;-75
2022/10/21 08:05:20;;;;;;;1.40;0.85;;;10.70;99.90;;;;;;4296657;32;20453;-76
2022/10/21 08:07:46;;;;;;;0.47;0.47;;;10.70;99.90;;;;;;4312956;32;20411;-76
2022/10/21 08:10:11;;;;;;;8.48;1.02;;;10.70;99.90;;;;;;4309762;32;20427;-75
2022/10/21 08:12:37;;;;;;;2.25;1.00;;;10.90;99.90;;;;;;4305141;32;20094;-75
2022/10/21 08:15:03;;;;;;;0.45;0.45;;;10.90;99.90;;;;;;4311971;32;20621;-75
2022/10/21 08:17:28;;;;;;;0.80;0.80;;;10.90;99.90;;;;;;4318246;32;20087;-75
2022/10/21 08:19:55;;;;;;;0.52;0.52;;;11.00;99.90;;;;;;4306792;32;22066;-76
2022/10/21 08:22:20;;;;;;;1.27;0.68;;;11.00;99.90;;;;;;4326774;32;20102;-75
2022/10/21 08:24:46;;;;;;;1.20;1.10;;;11.20;99.90;;;;;;4309956;32;20520;-76
2022/10/21 08:27:11;;;;;;;0.60;0.60;;;11.30;99.90;;;;;;4318854;32;20511;-75
2022/10/21 08:29:37;;;;;;;24.27;2.75;;;11.40;99.90;;;;;;4308153;32;20233;-76
2022/10/21 08:32:03;;;;;;;3.30;1.25;;;11.50;99.90;;;;;;4323643;32;20198;-76
2022/10/21 08:34:29;;;;;;;0.88;0.85;;;11.50;99.90;;;;;;4305343;32;90657;-76
2022/10/21 08:36:54;;;;;;;5.55;0.73;;;11.60;99.90;;;;;;4327204;32;20078;-76
2022/10/21 08:39:20;;;;;;;1.40;0.90;;;11.70;99.90;;;;;;4324058;32;20209;-76
2022/10/21 08:42:09;;;;;;;0.82;0.70;;;11.70;99.90;;;;;;4324109;32;20212;-77
2022/10/21 08:44:57;;;;;;;0.98;0.93;;;11.80;99.90;;;;;;4307849;32;20205;-77
2022/10/21 08:47:32;;;;;;;0.70;0.70;;;11.90;99.90;;;;;;4305038;32;20164;-77
2022/10/21 08:50:12;;;;;;;0.60;0.60;;;11.90;99.90;;;;;;4307164;32;20383;-77
2022/10/21 08:52:42;;;;;;;1.17;0.68;;;12.00;99.90;;;;;;4295150;32;20114;-76
2022/10/21 08:55:19;;;;;;;0.80;0.80;;;12.20;99.90;;;;;;4320443;32;20102;-76
2022/10/21 08:57:47;;;;;;;1.58;0.80;;;12.20;99.90;;;;;;4322654;32;20115;-76
2022/10/21 09:00:17;;;;;;;2.17;1.10;;;12.10;99.90;;;;;;4309253;32;20098;-75
2022/10/21 09:03:10;;;;;;;0.50;0.50;;;12.10;99.90;;;;;;4317423;32;20218;-76
2022/10/21 09:05:56;;;;;;;1.20;0.75;;;12.00;99.90;;;;;;4290208;32;20231;-76
2022/10/21 09:08:43;;;;;;;0.50;0.50;;;12.10;99.90;;;;;;4326273;32;20106;-76
2022/10/21 09:11:34;;;;;;;0.30;0.30;;;12.30;99.90;;;;;;4317291;32;20107;-75
2022/10/21 09:14:11;;;;;;;1.23;0.85;;;12.50;99.90;;;;;;4308740;32;20106;-76
2022/10/21 09:17:03;;;;;;;0.60;0.60;;;12.60;99.90;;;;;;4324212;32;20325;-76
2022/10/21 09:19:44;;;;;;;0.70;0.70;;;12.80;99.90;;;;;;4316742;32;21002;-76
2022/10/21 09:22:37;;;;;;;0.70;0.70;;;13.10;99.90;;;;;;4308274;32;20234;-74
2022/10/21 09:25:28;;;;;;;1.62;1.02;;;13.20;99.90;;;;;;4300466;32;20183;-75
2022/10/21 09:27:55;;;;;;;0.90;0.65;;;13.40;99.90;;;;;;4308280;32;20440;-73
2022/10/21 09:30:22;;;;;;;0.50;0.50;;;13.50;99.90;;;;;;4302382;32;20243;-75
2022/10/21 09:32:49;;;;;;;1.42;1.27;;;13.50;99.90;;;;;;4306389;32;20098;-75
2022/10/21 09:35:32;;;;;;;0.60;0.60;;;13.50;99.90;;;;;;4302767;32;21494;-76
2022/10/21 09:38:19;;;;;;;3.05;1.12;;;13.50;99.90;;;;;;4300793;32;21259;-76
2022/10/21 09:40:47;;;;;;;0.88;0.68;;;13.50;99.90;;;;;;4321522;32;20094;-77
2022/10/21 09:43:21;;;;;;;0.82;0.80;;;13.50;99.90;;;;;;4324428;32;20775;-77
2022/10/21 09:45:46;;;;;;;2.08;1.02;;;13.50;99.90;;;;;;4337634;32;20397;-75
2022/10/21 09:48:19;;;;;;;0.60;0.60;;;13.70;99.90;;;;;;4322527;32;20680;-76
2022/10/21 09:50:46;;;;;;;1.17;1.08;;;13.80;99.90;;;;;;4303705;32;20433;-75
2022/10/21 09:53:19;;;;;;;0.98;0.90;;;13.80;99.90;;;;;;4299234;32;20102;-74
2022/10/21 09:55:49;;;;;;;1.30;1.20;;;13.90;99.90;;;;;;4324480;32;20086;-76
2022/10/21 09:58:36;;;;;;;14.05;1.98;;;14.30;99.90;;;;;;4315909;32;20805;-76
2022/10/21 10:01:04;;;;;;;20.52;0.82;;;14.20;99.90;;;;;;4308785;32;20261;-76
2022/10/21 10:03:35;;;;;;;0.50;0.50;;;14.40;99.90;;;;;;4306663;32;20158;-76
2022/10/21 10:06:03;;;;;;;0.85;0.62;;;14.60;99.90;;;;;;4312450;32;20090;-77
2022/10/21 10:08:31;;;;;;;1.10;1.00;;;14.80;99.90;;;;;;4310548;32;20296;-76
2022/10/21 10:11:11;;;;;;;0.40;0.40;;;14.80;99.90;;;;;;4318610;32;20432;-75
2022/10/21 10:13:41;;;;;;;0.62;0.62;;;14.50;99.90;;;;;;4311467;32;21111;-75
2022/10/21 10:16:26;;;;;;;0.98;0.77;;;14.30;99.90;;;;;;4315838;32;20384;-75
2022/10/21 10:19:10;;;;;;;0.77;0.77;;;14.20;99.90;;;;;;4296829;32;20148;-75
2022/10/21 10:21:35;;;;;;;2.45;0.90;;;14.20;99.90;;;;;;4308899;32;20326;-75
2022/10/21 10:24:02;;;;;;;2.00;1.60;;;14.30;99.90;;;;;;4336429;32;21133;-76
2022/10/21 10:26:31;;;;;;;0.55;0.55;;;14.30;99.90;;;;;;4343192;32;20753;-75
2022/10/21 10:29:03;;;;;;;2.58;0.95;;;14.30;99.90;;;;;;4337831;32;20119;-74
2022/10/21 10:31:33;;;;;;;0.50;0.50;;;14.30;99.90;;;;;;4328885;32;20078;-73
2022/10/21 10:34:05;;;;;;;0.60;0.60;;;14.40;99.90;;;;;;4327125;32;20089;-73
2022/10/21 10:36:36;;;;;;;1.02;0.60;;;14.40;99.90;;;;;;4333010;32;20086;-74
2022/10/21 10:39:04;;;;;;;1.08;0.98;;;14.30;99.90;;;;;;4342524;32;20098;-74
2022/10/21 10:41:34;;;;;;;1.48;1.12;;;14.30;99.90;;;;;;4336656;32;20250;-73
2022/10/21 10:44:06;;;;;;;1.58;1.20;;;14.30;99.90;;;;;;4339389;32;20094;-74
2022/10/21 10:46:34;;;;;;;2.20;1.40;;;14.30;99.90;;;;;;4337034;32;20610;-73
2022/10/21 10:49:16;;;;;;;1.95;0.62;;;14.50;99.90;;;;;;4337286;32;20611;-73
2022/10/21 10:51:45;;;;;;;0.60;0.55;;;14.80;99.90;;;;;;4327524;32;20201;-73
2022/10/21 10:54:18;;;;;;;0.55;0.55;;;15.00;99.90;;;;;;4323575;32;20198;-74
2022/10/21 10:56:54;;;;;;;0.70;0.70;;;15.20;99.90;;;;;;4312104;32;20102;-74
2022/10/21 10:59:32;;;;;;;0.60;0.60;;;15.50;99.90;;;;;;4320225;32;20565;-73
2022/10/21 11:02:04;;;;;;;0.62;0.62;;;15.80;99.90;;;;;;4325151;32;20213;-73
2022/10/21 11:04:34;;;;;;;0.75;0.75;;;15.90;99.90;;;;;;4315938;32;20091;-73
2022/10/21 11:07:05;;;;;;;0.90;0.80;;;15.90;99.90;;;;;;4330923;32;20114;-73
2022/10/21 11:09:33;;;;;;;2.50;0.85;;;16.00;99.90;;;;;;4340979;32;20296;-73
2022/10/21 11:12:04;;;;;;;0.60;0.60;;;15.60;99.90;;;;;;4320926;32;20148;-74
2022/10/21 11:14:29;;;;;;;1.35;1.02;;;15.50;99.90;;;;;;4327912;32;20644;-75
2022/10/21 11:17:08;;;;;;;4.37;0.95;;;15.20;99.90;;;;;;4326287;32;20903;-74
2022/10/21 11:19:44;;;;;;;0.60;0.60;;;15.10;99.90;;;;;;4323046;32;20344;-74
2022/10/21 11:22:16;;;;;;;0.50;0.50;;;15.00;99.90;;;;;;4321207;32;21298;-74
2022/10/21 11:25:10;;;;;;;0.60;0.60;;;14.90;99.90;;;;;;4321503;32;20078;-73
2022/10/21 11:28:03;;;;;;;1.00;0.90;;;15.00;99.90;;;;;;4322633;32;20189;-76
2022/10/21 11:31:09;;;;;;;1.85;0.82;;;15.20;99.90;;;;;;4314941;32;20597;-74
2022/10/21 11:33:54;;;;;;;0.75;0.75;;;15.50;99.90;;;;;;4307917;32;20274;-74
2022/10/21 11:36:46;;;;;;;0.60;0.60;;;15.60;99.90;;;;;;4324628;32;20636;-74
2022/10/21 11:39:43;;;;;;;0.55;0.50;;;15.70;99.90;;;;;;4334871;32;20109;-76
2022/10/21 11:42:36;;;;;;;1.08;0.98;;;15.80;99.90;;;;;;4309618;32;20170;-74
2022/10/21 11:45:21;;;;;;;2.10;0.57;;;16.00;99.90;;;;;;4322040;32;20174;-74
2022/10/21 11:48:00;;;;;;;0.70;0.70;;;16.20;99.90;;;;;;4322581;32;20746;-73
2022/10/21 11:50:35;;;;;;;1.45;0.55;;;16.20;99.90;;;;;;4317297;32;20207;-73
2022/10/21 11:53:28;;;;;;;0.60;0.60;;;16.20;99.90;;;;;;4319581;32;21968;-73
2022/10/21 11:56:11;;;;;;;0.70;0.70;;;16.20;99.90;;;;;;4314770;32;20098;-73
2022/10/21 11:59:17;;;;;;;1.27;0.98;;;16.20;99.90;;;;;;4332885;32;20323;-73
2022/10/21 12:01:57;;;;;;;0.85;0.75;;;16.10;99.90;;;;;;4310168;32;20377;-74
2022/10/21 12:04:35;;;;;;;0.62;0.62;;;16.20;99.90;;;;;;4322911;32;20214;-74
2022/10/21 12:07:13;;;;;;;0.60;0.60;;;16.20;99.90;;;;;;4329594;32;20593;-74
2022/10/21 12:09:50;;;;;;;1.23;0.70;;;16.20;99.90;;;;;;4338561;32;20609;-73
2022/10/21 12:12:25;;;;;;;0.52;0.52;;;16.30;99.90;;;;;;4324165;32;21169;-73
2022/10/21 12:14:56;;;;;;;1.90;0.80;;;16.50;99.90;;;;;;4325438;32;20102;-74
2022/10/21 12:17:23;;;;;;;0.73;0.62;;;16.70;99.90;;;;;;4320832;32;20095;-75
2022/10/21 12:20:11;;;;;;;9.18;0.73;;;16.70;99.90;;;;;;4316819;32;20098;-75
2022/10/21 12:22:37;;;;;;;2.92;1.25;;;16.60;99.90;;;;;;4304681;32;20070;-75
2022/10/21 12:25:13;;;;;;;1.00;0.90;;;16.40;99.90;;;;;;4327665;32;20229;-74
2022/10/21 12:28:03;;;;;;;2.50;1.37;;;16.30;99.90;;;;;;4340326;32;20640;-74
2022/10/21 12:30:33;;;;;;;0.47;0.47;;;16.20;99.90;;;;;;4313909;32;20172;-74
2022/10/21 12:33:27;;;;;;;2.67;0.90;;;16.20;99.90;;;;;;4309110;32;20454;-75
2022/10/21 12:36:10;;;;;;;0.40;0.40;;;16.30;99.90;;;;;;4307897;32;20275;-75
2022/10/21 12:38:53;;;;;;;0.95;0.95;;;16.30;99.90;;;;;;4320416;32;20482;-75
2022/10/21 12:41:27;;;;;;;0.50;0.50;;;16.30;99.90;;;;;;4332323;32;20338;-75
2022/10/21 12:44:02;;;;;;;1.52;0.90;;;16.30;99.90;;;;;;4345133;32;20078;-75
2022/10/21 12:46:35;;;;;;;0.77;0.50;;;16.30;99.90;;;;;;4342212;32;20641;-75
2022/10/21 12:49:17;;;;;;;0.90;0.80;;;16.20;99.90;;;;;;4333027;32;20098;-74
2022/10/21 12:51:57;;;;;;;0.62;0.62;;;16.10;99.90;;;;;;4331592;32;20106;-74
2022/10/21 12:54:26;;;;;;;1.93;0.87;;;16.00;99.90;;;;;;4337623;32;20361;-75
2022/10/21 12:57:03;;;;;;;0.75;0.70;;;16.00;99.90;;;;;;4350071;32;20087;-75
2022/10/21 12:59:39;;;;;;;0.43;0.43;;;15.90;99.90;;;;;;4339718;32;20316;-75
2022/10/21 13:02:07;;;;;;;0.80;0.60;;;15.90;99.90;;;;;;4335583;32;20100;-74
2022/10/21 13:04:35;;;;;;;2.83;1.00;;;15.90;99.90;;;;;;4329442;32;20114;-74
2022/10/21 13:07:02;;;;;;;0.95;0.75;;;15.80;99.90;;;;;;4345284;32;20098;-75
2022/10/21 13:09:49;;;;;;;0.70;0.55;;;15.70;99.90;;;;;;4352412;32;20119;-75